Time;durP1;ratioP1;P1;durP2;ratioP2;P2;SDS_P1;SDS_P2;PMS_P1;PMS_P2;Temp;Humidity;BMP_temperature;BMP_pressure;BME280_temperature;BME280_humidity;BME280_pressure;Samples;Min_cycle;Max_cycle;Signal;HPM_P1;HPM_P2
2021/06/25 00:00:04;;;;;;;;;18.00;15.00;;;;;;;;5072365;27;45604;-77
2021/06/25 00:02:29;;;;;;;;;19.25;17.25;;;;;;;;5073445;27;45650;-75
2021/06/25 00:04:55;;;;;;;;;22.67;19.33;;;;;;;;5071856;27;45467;-76
2021/06/25 00:07:20;;;;;;;;;19.00;17.67;;;;;;;;5069834;27;46009;-76
2021/06/25 00:09:45;;;;;;;;;17.00;13.33;;;;;;;;5077649;27;45492;-75
2021/06/25 00:12:10;;;;;;;;;21.33;17.67;;;;;;;;5076239;27;45627;-76
2021/06/25 00:14:36;;;;;;;;;20.25;16.25;;;;;;;;5074271;27;46366;-76
2021/06/25 00:17:02;;;;;;;;;18.25;18.25;;;;;;;;5080869;27;45531;-76
2021/06/25 00:19:28;;;;;;;;;20.25;18.00;;;;;;;;5078320;27;45398;-76
2021/06/25 00:21:53;;;;;;;;;24.50;19.75;;;;;;;;5072064;27;45612;-77
2021/06/25 00:24:18;;;;;;;;;24.00;21.50;;;;;;;;5082584;27;45477;-77
2021/06/25 00:26:44;;;;;;;;;18.33;17.00;;;;;;;;5076604;27;45489;-76
2021/06/25 00:29:09;;;;;;;;;21.00;18.50;;;;;;;;5072209;27;45530;-76
2021/06/25 00:31:36;;;;;;;;;20.33;19.67;;;;;;;;5071342;27;45543;-75
2021/06/25 00:34:02;;;;;;;;;21.25;18.75;;;;;;;;5072027;27;46233;-76
2021/06/25 00:36:27;;;;;;;;;23.00;20.50;;;;;;;;5074421;27;45217;-77
2021/06/25 00:38:52;;;;;;;;;22.33;19.67;;;;;;;;5071134;27;45485;-76
2021/06/25 00:41:17;;;;;;;;;22.00;19.33;;;;;;;;5071220;27;46602;-75
2021/06/25 00:43:43;;;;;;;;;23.67;18.67;;;;;;;;5081269;27;46253;-77
2021/06/25 00:46:08;;;;;;;;;19.00;16.00;;;;;;;;5077539;27;45586;-76
2021/06/25 00:48:33;;;;;;;;;20.33;20.33;;;;;;;;5071865;27;45430;-76
2021/06/25 00:50:58;;;;;;;;;19.33;19.33;;;;;;;;5075492;27;46753;-78
2021/06/25 00:53:24;;;;;;;;;18.25;14.50;;;;;;;;5072843;27;45789;-77
2021/06/25 00:55:49;;;;;;;;;22.50;19.75;;;;;;;;5070285;27;45339;-76
2021/06/25 00:58:15;;;;;;;;;24.33;21.67;;;;;;;;5077183;27;45547;-77
2021/06/25 01:00:42;;;;;;;;;28.25;21.50;;;;;;;;5073201;27;45574;-77
2021/06/25 01:03:07;;;;;;;;;23.25;17.25;;;;;;;;5073586;27;46232;-75
2021/06/25 01:05:32;;;;;;;;;21.67;19.67;;;;;;;;5071575;27;45464;-77
2021/06/25 01:07:58;;;;;;;;;20.25;19.75;;;;;;;;5069895;27;45946;-75
2021/06/25 01:10:23;;;;;;;;;20.25;20.00;;;;;;;;5076354;27;45493;-76
2021/06/25 01:12:50;;;;;;;;;20.50;18.50;;;;;;;;5075747;27;45437;-78
2021/06/25 01:15:15;;;;;;;;;24.50;21.25;;;;;;;;5075293;27;46148;-74
2021/06/25 01:17:41;;;;;;;;;21.75;19.75;;;;;;;;5077473;27;45241;-76
2021/06/25 01:20:08;;;;;;;;;27.25;19.75;;;;;;;;5072484;27;45406;-75
2021/06/25 01:22:34;;;;;;;;;21.00;21.00;;;;;;;;5081180;27;45998;-77
2021/06/25 01:25:04;;;;;;;;;17.50;15.25;;;;;;;;5074864;27;46484;-77
2021/06/25 01:27:29;;;;;;;;;23.25;18.75;;;;;;;;5084760;27;45331;-76
2021/06/25 01:29:58;;;;;;;;;23.25;21.75;;;;;;;;5081603;27;45461;-77
2021/06/25 01:32:23;;;;;;;;;21.50;19.50;;;;;;;;5072241;27;46752;-76
2021/06/25 01:34:48;;;;;;;;;26.50;22.50;;;;;;;;5084002;27;46098;-76
2021/06/25 01:37:14;;;;;;;;;21.00;20.00;;;;;;;;5080056;27;45598;-77
2021/06/25 01:39:39;;;;;;;;;26.75;22.50;;;;;;;;5085759;27;45421;-77
2021/06/25 01:42:06;;;;;;;;;28.75;23.50;;;;;;;;5075326;27;46636;-76
2021/06/25 01:44:31;;;;;;;;;24.25;21.75;;;;;;;;5074906;27;46344;-77
2021/06/25 01:46:57;;;;;;;;;31.75;22.00;;;;;;;;5073761;27;45932;-76
2021/06/25 01:49:22;;;;;;;;;21.50;20.75;;;;;;;;5079012;27;45767;-76
2021/06/25 01:51:48;;;;;;;;;23.33;20.67;;;;;;;;5076238;27;46112;-76
2021/06/25 01:54:13;;;;;;;;;26.50;22.00;;;;;;;;5079748;27;45836;-77
2021/06/25 01:56:38;;;;;;;;;30.67;26.00;;;;;;;;5076252;27;45715;-77
2021/06/25 01:59:04;;;;;;;;;27.67;24.33;;;;;;;;5072443;27;45520;-75
2021/06/25 02:01:29;;;;;;;;;29.25;25.75;;;;;;;;5079118;27;47256;-76
2021/06/25 02:03:58;;;;;;;;;23.25;20.50;;;;;;;;5075354;27;45495;-75
2021/06/25 02:06:23;;;;;;;;;27.50;23.25;;;;;;;;5075096;27;45342;-77
2021/06/25 02:08:48;;;;;;;;;22.00;20.33;;;;;;;;5076926;27;45635;-77
2021/06/25 02:11:14;;;;;;;;;26.75;21.75;;;;;;;;5078854;27;45990;-76
2021/06/25 02:13:40;;;;;;;;;25.25;23.50;;;;;;;;5073696;27;46134;-77
2021/06/25 02:16:05;;;;;;;;;26.75;24.50;;;;;;;;5076223;27;46638;-75
2021/06/25 02:18:30;;;;;;;;;22.50;21.00;;;;;;;;5075525;27;45890;-76
2021/06/25 02:20:56;;;;;;;;;36.00;27.67;;;;;;;;5078617;27;46130;-77
2021/06/25 02:23:21;;;;;;;;;25.50;20.75;;;;;;;;5071855;27;45810;-76
2021/06/25 02:25:46;;;;;;;;;27.33;23.33;;;;;;;;5071837;28;45702;-77
2021/06/25 02:28:12;;;;;;;;;23.00;21.33;;;;;;;;5074897;27;45407;-75
2021/06/25 02:30:37;;;;;;;;;32.00;26.00;;;;;;;;5078197;27;47945;-76
2021/06/25 02:33:02;;;;;;;;;24.00;18.50;;;;;;;;5074767;27;48805;-76
2021/06/25 02:35:28;;;;;;;;;20.75;20.75;;;;;;;;5081371;27;45555;-76
2021/06/25 02:37:55;;;;;;;;;29.75;24.00;;;;;;;;5074153;27;45870;-76
2021/06/25 02:40:21;;;;;;;;;28.25;22.75;;;;;;;;5083363;27;45485;-76
2021/06/25 02:42:46;;;;;;;;;33.75;27.25;;;;;;;;5074387;27;45611;-76
2021/06/25 02:45:11;;;;;;;;;28.75;25.25;;;;;;;;5077418;27;45956;-75
2021/06/25 02:47:38;;;;;;;;;22.50;22.00;;;;;;;;5075019;27;45537;-76
2021/06/25 02:50:04;;;;;;;;;23.00;21.00;;;;;;;;5078300;27;45379;-77
2021/06/25 02:52:29;;;;;;;;;29.75;23.00;;;;;;;;5085106;27;45482;-75
2021/06/25 02:54:54;;;;;;;;;27.25;24.25;;;;;;;;5074682;27;45901;-77
2021/06/25 02:57:20;;;;;;;;;28.25;24.25;;;;;;;;5080675;27;45452;-76
2021/06/25 02:59:45;;;;;;;;;27.75;24.25;;;;;;;;5071145;27;45371;-75
2021/06/25 03:02:10;;;;;;;;;30.67;25.67;;;;;;;;5069976;27;45396;-77
2021/06/25 03:04:36;;;;;;;;;34.25;26.75;;;;;;;;5077160;27;45387;-77
2021/06/25 03:07:01;;;;;;;;;31.00;26.50;;;;;;;;5080555;27;45436;-77
2021/06/25 03:09:26;;;;;;;;;30.67;27.00;;;;;;;;5075874;27;46209;-76
2021/06/25 03:11:51;;;;;;;;;28.67;23.33;;;;;;;;5075233;27;45457;-78
2021/06/25 03:14:17;;;;;;;;;35.00;30.00;;;;;;;;5076033;27;45474;-76
2021/06/25 03:16:42;;;;;;;;;28.00;27.33;;;;;;;;5071231;27;45343;-75
2021/06/25 03:19:07;;;;;;;;;34.25;28.25;;;;;;;;5083723;27;46495;-77
2021/06/25 03:21:32;;;;;;;;;29.67;26.67;;;;;;;;5076500;27;45866;-76
2021/06/25 03:23:58;;;;;;;;;28.50;23.00;;;;;;;;5076220;27;45374;-76
2021/06/25 03:26:23;;;;;;;;;23.00;20.67;;;;;;;;5073415;27;45597;-76
2021/06/25 03:28:48;;;;;;;;;29.50;27.00;;;;;;;;5082641;27;45536;-76
2021/06/25 03:31:14;;;;;;;;;27.00;25.00;;;;;;;;5072427;27;45514;-75
2021/06/25 03:33:39;;;;;;;;;33.50;25.75;;;;;;;;5072966;27;45563;-77
2021/06/25 03:36:04;;;;;;;;;39.67;31.33;;;;;;;;5073739;27;48831;-75
2021/06/25 03:38:31;;;;;;;;;31.67;28.00;;;;;;;;5071765;27;46085;-76
2021/06/25 03:40:56;;;;;;;;;30.75;26.75;;;;;;;;5070386;27;45314;-78
2021/06/25 03:43:22;;;;;;;;;37.33;29.67;;;;;;;;5071332;27;45441;-77
2021/06/25 03:45:47;;;;;;;;;29.33;25.00;;;;;;;;5079458;27;45402;-76
2021/06/25 03:48:12;;;;;;;;;34.25;29.75;;;;;;;;5079488;27;47503;-76
2021/06/25 03:50:38;;;;;;;;;29.50;28.25;;;;;;;;5072526;27;45538;-76
2021/06/25 03:53:03;;;;;;;;;29.67;25.00;;;;;;;;5071976;27;45309;-76
2021/06/25 03:55:31;;;;;;;;;33.00;27.50;;;;;;;;5070539;27;46906;-77
2021/06/25 03:57:57;;;;;;;;;30.00;29.00;;;;;;;;5077868;27;46274;-76
2021/06/25 04:00:22;;;;;;;;;34.00;30.67;;;;;;;;5077543;27;45469;-77
2021/06/25 04:02:47;;;;;;;;;40.33;31.00;;;;;;;;5075045;27;45468;-76
2021/06/25 04:05:13;;;;;;;;;31.00;28.75;;;;;;;;5078345;27;45451;-77
2021/06/25 04:07:39;;;;;;;;;32.25;27.25;;;;;;;;5081631;27;46034;-76
2021/06/25 04:10:05;;;;;;;;;31.25;26.50;;;;;;;;5080850;27;45360;-76
2021/06/25 04:12:31;;;;;;;;;35.00;28.75;;;;;;;;5083125;27;45861;-76
2021/06/25 04:14:59;;;;;;;;;30.75;26.25;;;;;;;;5077018;27;45539;-77
2021/06/25 04:17:24;;;;;;;;;31.25;26.75;;;;;;;;5076379;27;46507;-76
2021/06/25 04:19:50;;;;;;;;;30.00;26.67;;;;;;;;5063983;27;45495;-77
2021/06/25 04:22:15;;;;;;;;;33.75;27.25;;;;;;;;5055764;27;45443;-78
2021/06/25 04:24:40;;;;;;;;;30.00;26.00;;;;;;;;5078254;27;45475;-82
2021/06/25 04:27:06;;;;;;;;;32.33;29.33;;;;;;;;5059450;27;47569;-76
2021/06/25 04:29:32;;;;;;;;;23.75;20.75;;;;;;;;5073340;27;45488;-78
2021/06/25 04:31:57;;;;;;;;;26.75;24.25;;;;;;;;5070587;27;45822;-75
2021/06/25 04:34:23;;;;;;;;;31.75;27.75;;;;;;;;5073639;27;45649;-77
2021/06/25 04:36:48;;;;;;;;;37.00;27.00;;;;;;;;5079852;27;48628;-76
2021/06/25 04:39:13;;;;;;;;;33.25;26.00;;;;;;;;5076779;27;45599;-78
2021/06/25 04:41:39;;;;;;;;;26.25;24.75;;;;;;;;5075094;27;45642;-77
2021/06/25 04:44:04;;;;;;;;;34.67;28.67;;;;;;;;5078440;27;45453;-77
2021/06/25 04:46:29;;;;;;;;;31.00;24.75;;;;;;;;5082256;27;46634;-75
2021/06/25 04:48:55;;;;;;;;;36.75;29.75;;;;;;;;5078562;27;45945;-76
2021/06/25 04:51:20;;;;;;;;;29.00;24.00;;;;;;;;5075574;27;45465;-77
2021/06/25 04:53:46;;;;;;;;;33.00;26.00;;;;;;;;5076583;27;45567;-75
2021/06/25 04:56:11;;;;;;;;;29.00;24.75;;;;;;;;5076038;27;45404;-75
2021/06/25 04:58:36;;;;;;;;;29.67;23.00;;;;;;;;5077055;27;45333;-76
2021/06/25 05:01:01;;;;;;;;;29.00;26.33;;;;;;;;5083758;27;45288;-82
2021/06/25 05:03:28;;;;;;;;;24.50;22.75;;;;;;;;5077505;27;45318;-75
2021/06/25 05:05:53;;;;;;;;;33.25;23.50;;;;;;;;5078390;27;47762;-78
2021/06/25 05:08:19;;;;;;;;;25.00;22.33;;;;;;;;5079923;27;45464;-77
2021/06/25 05:10:44;;;;;;;;;24.25;21.75;;;;;;;;5084136;27;46080;-76
2021/06/25 05:13:15;;;;;;;;;26.33;20.00;;;;;;;;5084145;27;45385;-76
2021/06/25 05:15:40;;;;;;;;;29.00;26.50;;;;;;;;5084452;27;47424;-76
2021/06/25 05:18:16;;;;;;;;;27.00;22.25;;;;;;;;5080374;27;45488;-76
2021/06/25 05:20:41;;;;;;;;;28.00;21.50;;;;;;;;5079551;27;45480;-75
2021/06/25 05:23:08;;;;;;;;;27.00;24.00;;;;;;;;5076895;27;45341;-76
2021/06/25 05:25:33;;;;;;;;;26.00;23.75;;;;;;;;5085342;27;45900;-78
2021/06/25 05:27:58;;;;;;;;;28.33;21.33;;;;;;;;5085482;27;45453;-76
2021/06/25 05:30:23;;;;;;;;;29.67;26.33;;;;;;;;5076005;27;45235;-79
2021/06/25 05:32:48;;;;;;;;;26.67;22.67;;;;;;;;5078833;27;46223;-75
2021/06/25 05:35:14;;;;;;;;;31.67;24.00;;;;;;;;5082815;27;46970;-77
2021/06/25 05:37:39;;;;;;;;;22.67;22.67;;;;;;;;5082807;27;47187;-77
2021/06/25 05:40:05;;;;;;;;;21.67;19.33;;;;;;;;5086018;27;45422;-76
2021/06/25 05:42:30;;;;;;;;;23.25;21.75;;;;;;;;5085443;27;45560;-78
2021/06/25 05:44:55;;;;;;;;;26.50;23.75;;;;;;;;5078598;27;47158;-75
2021/06/25 05:47:20;;;;;;;;;25.00;22.25;;;;;;;;5077946;27;45441;-77
2021/06/25 05:49:46;;;;;;;;;29.00;22.67;;;;;;;;5084560;27;45803;-76
2021/06/25 05:52:11;;;;;;;;;24.67;19.67;;;;;;;;5077352;27;45365;-76
2021/06/25 05:54:36;;;;;;;;;29.00;23.67;;;;;;;;5083773;27;45631;-76
2021/06/25 05:57:02;;;;;;;;;23.33;21.67;;;;;;;;5078271;27;45554;-77
2021/06/25 05:59:27;;;;;;;;;21.25;20.50;;;;;;;;5080901;27;45840;-77
2021/06/25 06:01:52;;;;;;;;;27.67;24.33;;;;;;;;5084133;27;45472;-76
2021/06/25 06:04:17;;;;;;;;;28.00;19.25;;;;;;;;5072735;27;45648;-76
2021/06/25 06:06:44;;;;;;;;;24.00;21.33;;;;;;;;5075648;27;45723;-75
2021/06/25 06:09:09;;;;;;;;;33.00;26.25;;;;;;;;5072234;27;45633;-76
2021/06/25 06:11:34;;;;;;;;;27.33;21.00;;;;;;;;5075419;27;45557;-79
2021/06/25 06:14:00;;;;;;;;;20.00;20.00;;;;;;;;5079699;27;48139;-77
2021/06/25 06:16:25;;;;;;;;;25.25;22.00;;;;;;;;5084136;27;45590;-76
2021/06/25 06:18:51;;;;;;;;;27.25;19.75;;;;;;;;5083840;27;45429;-76
2021/06/25 06:21:17;;;;;;;;;26.50;21.50;;;;;;;;5080601;27;45662;-77
2021/06/25 06:32:20;;;;;;;;;26.25;20.50;;;;;;;;5067067;27;45501;-76
2021/06/25 06:34:40;;;;;;;;;23.50;20.00;;;;;;;;5080080;27;45516;-80
2021/06/25 06:37:05;;;;;;;;;20.50;19.50;;;;;;;;5080608;27;45278;-78
2021/06/25 06:39:31;;;;;;;;;23.50;19.75;;;;;;;;5084554;27;45294;-76
2021/06/25 06:41:56;;;;;;;;;24.75;20.50;;;;;;;;5073974;27;45448;-76
2021/06/25 06:44:22;;;;;;;;;23.00;19.50;;;;;;;;5071494;27;45334;-77
2021/06/25 06:46:47;;;;;;;;;24.00;22.25;;;;;;;;5084050;27;45330;-76
2021/06/25 06:49:12;;;;;;;;;24.00;22.67;;;;;;;;5084007;27;45472;-77
2021/06/25 06:51:39;;;;;;;;;28.50;20.25;;;;;;;;5084302;27;45548;-76
2021/06/25 06:54:04;;;;;;;;;17.50;16.00;;;;;;;;5076435;27;47126;-76
2021/06/25 06:56:30;;;;;;;;;23.00;21.50;;;;;;;;5073781;27;45541;-77
2021/06/25 06:58:56;;;;;;;;;23.75;18.25;;;;;;;;5070267;27;45558;-76
2021/06/25 07:01:23;;;;;;;;;24.50;19.75;;;;;;;;5072121;27;45399;-75
2021/06/25 07:03:48;;;;;;;;;23.75;21.00;;;;;;;;5084274;27;45366;-78
2021/06/25 07:06:14;;;;;;;;;20.00;20.00;;;;;;;;5079856;27;45425;-76
2021/06/25 07:08:39;;;;;;;;;25.75;21.00;;;;;;;;5078384;27;45569;-77
2021/06/25 07:11:04;;;;;;;;;23.25;20.50;;;;;;;;5078365;27;45380;-77
2021/06/25 07:13:30;;;;;;;;;25.33;21.00;;;;;;;;5083368;27;47037;-76
2021/06/25 07:15:55;;;;;;;;;23.67;20.67;;;;;;;;5083959;27;45554;-79
2021/06/25 07:18:21;;;;;;;;;23.75;20.00;;;;;;;;5080721;27;45385;-77
2021/06/25 07:20:46;;;;;;;;;24.75;21.50;;;;;;;;5065098;27;45425;-76
2021/06/25 07:23:11;;;;;;;;;23.67;20.00;;;;;;;;5060447;27;45862;-77
2021/06/25 07:25:37;;;;;;;;;20.50;18.50;;;;;;;;5097230;27;46080;-77
2021/06/25 07:28:02;;;;;;;;;25.33;22.00;;;;;;;;5082033;27;45330;-76
2021/06/25 07:30:27;;;;;;;;;21.75;20.50;;;;;;;;5071441;27;45462;-76
2021/06/25 07:32:52;;;;;;;;;18.67;18.67;;;;;;;;5087488;27;48237;-77
2021/06/25 07:35:18;;;;;;;;;19.00;17.33;;;;;;;;5079500;27;45358;-76
2021/06/25 07:37:44;;;;;;;;;22.25;21.25;;;;;;;;5081232;27;45497;-76
2021/06/25 07:40:10;;;;;;;;;23.75;23.00;;;;;;;;5077645;27;45866;-76
2021/06/25 07:42:35;;;;;;;;;22.75;20.25;;;;;;;;5069747;28;45510;-78
2021/06/25 07:45:07;;;;;;;;;25.67;22.00;;;;;;;;5076025;27;45583;-77
2021/06/25 07:47:32;;;;;;;;;21.75;20.75;;;;;;;;5072357;27;45393;-78
2021/06/25 07:49:58;;;;;;;;;28.50;23.00;;;;;;;;5073989;27;45377;-75
2021/06/25 07:52:23;;;;;;;;;24.33;20.33;;;;;;;;5083170;27;46056;-76
2021/06/25 07:54:48;;;;;;;;;28.00;23.67;;;;;;;;5072166;27;45466;-76
2021/06/25 07:57:13;;;;;;;;;26.75;22.50;;;;;;;;5080751;27;45538;-79
2021/06/25 07:59:39;;;;;;;;;21.00;21.00;;;;;;;;5073589;27;45417;-76
2021/06/25 08:02:04;;;;;;;;;22.67;22.33;;;;;;;;5080853;27;46157;-79
2021/06/25 08:04:31;;;;;;;;;26.00;19.75;;;;;;;;5070127;27;48870;-76
2021/06/25 08:06:56;;;;;;;;;21.25;17.25;;;;;;;;5083657;27;45596;-77
2021/06/25 08:09:21;;;;;;;;;24.33;18.33;;;;;;;;5080673;27;45451;-75
2021/06/25 08:11:47;;;;;;;;;22.00;19.00;;;;;;;;5073604;27;47069;-77
2021/06/25 08:14:12;;;;;;;;;17.50;14.75;;;;;;;;5069607;28;45498;-77
2021/06/25 08:16:38;;;;;;;;;20.50;17.00;;;;;;;;5070545;27;45492;-76
2021/06/25 08:19:03;;;;;;;;;21.50;18.50;;;;;;;;5070428;27;45383;-79
2021/06/25 08:21:29;;;;;;;;;21.00;20.50;;;;;;;;5077614;27;46026;-75
2021/06/25 08:23:55;;;;;;;;;17.50;17.00;;;;;;;;5074124;27;45665;-76
2021/06/25 08:26:21;;;;;;;;;20.75;18.00;;;;;;;;5074629;27;45579;-85
2021/06/25 08:28:46;;;;;;;;;18.00;16.00;;;;;;;;5069816;27;45588;-77
2021/06/25 08:31:12;;;;;;;;;19.25;16.75;;;;;;;;5074678;27;46966;-75
2021/06/25 08:33:37;;;;;;;;;18.33;16.00;;;;;;;;5071194;27;45845;-76
2021/06/25 08:36:03;;;;;;;;;16.25;15.25;;;;;;;;5078323;27;45402;-76
2021/06/25 08:38:28;;;;;;;;;17.25;17.25;;;;;;;;5080654;27;45358;-76
2021/06/25 08:40:55;;;;;;;;;22.67;19.00;;;;;;;;5084193;27;45642;-78
2021/06/25 08:43:21;;;;;;;;;18.25;15.25;;;;;;;;5072555;27;45978;-76
2021/06/25 08:45:46;;;;;;;;;15.67;15.33;;;;;;;;5075066;27;45386;-77
2021/06/25 08:48:12;;;;;;;;;16.00;13.00;;;;;;;;5080229;27;45532;-78
2021/06/25 08:50:39;;;;;;;;;13.25;13.00;;;;;;;;5079815;27;45753;-77
2021/06/25 08:53:05;;;;;;;;;14.50;14.00;;;;;;;;5081269;27;45496;-75
2021/06/25 08:55:30;;;;;;;;;17.00;14.75;;;;;;;;5078255;27;45472;-76
2021/06/25 08:57:55;;;;;;;;;14.75;13.25;;;;;;;;5086584;27;45427;-76
2021/06/25 09:00:22;;;;;;;;;15.00;13.67;;;;;;;;5083071;27;45236;-75
2021/06/25 09:02:47;;;;;;;;;16.25;16.25;;;;;;;;5072789;27;45895;-75
2021/06/25 09:05:22;;;;;;;;;16.25;12.75;;;;;;;;5073171;27;45741;-76
2021/06/25 09:07:47;;;;;;;;;16.25;11.25;;;;;;;;5074037;27;45963;-76
2021/06/25 09:10:13;;;;;;;;;17.75;12.50;;;;;;;;5058761;27;46150;-77
2021/06/25 09:12:39;;;;;;;;;13.50;12.25;;;;;;;;5085851;27;45871;-76
2021/06/25 09:15:05;;;;;;;;;13.50;12.25;;;;;;;;5072529;27;45481;-76
2021/06/25 09:17:31;;;;;;;;;12.00;11.50;;;;;;;;5061752;27;46753;-77
2021/06/25 09:19:57;;;;;;;;;11.50;10.00;;;;;;;;5073340;27;46903;-79
2021/06/25 09:22:23;;;;;;;;;11.25;10.25;;;;;;;;5074599;27;45469;-77
2021/06/25 09:24:58;;;;;;;;;11.00;10.50;;;;;;;;5075085;27;45474;-76
2021/06/25 09:27:23;;;;;;;;;10.50;8.75;;;;;;;;5083646;27;45369;-76
2021/06/25 09:29:49;;;;;;;;;12.00;8.00;;;;;;;;5057593;27;45432;-76
2021/06/25 09:32:14;;;;;;;;;10.00;9.50;;;;;;;;5073106;27;45468;-76
2021/06/25 09:34:39;;;;;;;;;8.33;7.67;;;;;;;;5075544;27;45425;-76
2021/06/25 09:37:07;;;;;;;;;10.00;8.00;;;;;;;;5081363;27;45536;-78
2021/06/25 09:39:33;;;;;;;;;6.00;6.00;;;;;;;;5084223;27;47440;-77
2021/06/25 09:41:58;;;;;;;;;8.00;8.00;;;;;;;;5081164;27;45303;-77
2021/06/25 09:44:26;;;;;;;;;8.33;8.33;;;;;;;;5079441;27;45239;-77
2021/06/25 09:46:52;;;;;;;;;8.25;8.25;;;;;;;;5083884;27;45556;-76
2021/06/25 09:49:23;;;;;;;;;11.25;6.75;;;;;;;;5061764;27;46654;-76
2021/06/25 09:51:58;;;;;;;;;7.75;7.00;;;;;;;;5076051;27;45319;-76
2021/06/25 09:54:25;;;;;;;;;8.00;7.25;;;;;;;;5083488;27;45360;-75
2021/06/25 09:57:01;;;;;;;;;9.00;7.25;;;;;;;;5082720;27;45572;-76
2021/06/25 09:59:52;;;;;;;;;8.00;6.75;;;;;;;;5077878;27;46494;-74
2021/06/25 10:02:17;;;;;;;;;8.75;5.00;;;;;;;;5079623;27;45782;-75
2021/06/25 10:04:43;;;;;;;;;2.00;2.00;;;;;;;;5078641;27;45447;-76
2021/06/25 10:07:14;;;;;;;;;6.50;6.50;;;;;;;;5072062;27;45651;-74
2021/06/25 10:09:39;;;;;;;;;7.75;4.25;;;;;;;;5081391;27;48559;-76
2021/06/25 10:12:08;;;;;;;;;6.00;4.00;;;;;;;;5074497;27;45357;-77
2021/06/25 10:14:34;;;;;;;;;5.50;5.50;;;;;;;;5075245;27;45516;-75
2021/06/25 10:16:59;;;;;;;;;6.00;6.00;;;;;;;;5082053;27;45699;-75
2021/06/25 10:19:25;;;;;;;;;8.00;6.25;;;;;;;;5077694;27;47135;-76
2021/06/25 10:21:51;;;;;;;;;5.50;5.00;;;;;;;;5084152;27;46289;-75
2021/06/25 10:24:17;;;;;;;;;7.00;5.25;;;;;;;;5054918;27;46123;-75
2021/06/25 10:26:43;;;;;;;;;5.00;5.00;;;;;;;;5073812;27;45587;-75
2021/06/25 10:29:08;;;;;;;;;5.00;5.00;;;;;;;;5065720;27;46624;-76
2021/06/25 10:31:33;;;;;;;;;5.75;5.75;;;;;;;;5064883;27;45569;-75
2021/06/25 10:33:59;;;;;;;;;3.75;3.75;;;;;;;;5073828;27;45406;-75
2021/06/25 10:36:26;;;;;;;;;5.50;5.00;;;;;;;;5066179;27;45489;-82
2021/06/25 10:38:53;;;;;;;;;5.75;4.75;;;;;;;;5061440;28;46599;-76
2021/06/25 10:41:19;;;;;;;;;6.25;5.00;;;;;;;;5062257;28;45626;-75
2021/06/25 10:43:51;;;;;;;;;5.50;5.00;;;;;;;;5074833;27;45523;-75
2021/06/25 10:46:34;;;;;;;;;7.00;6.25;;;;;;;;5065726;27;45516;-75
2021/06/25 10:49:13;;;;;;;;;5.00;5.00;;;;;;;;5070924;27;45779;-76
2021/06/25 10:51:39;;;;;;;;;8.00;7.25;;;;;;;;5084622;27;45747;-82
2021/06/25 10:54:05;;;;;;;;;7.50;7.50;;;;;;;;5073139;27;45389;-76
2021/06/25 10:56:30;;;;;;;;;6.33;6.00;;;;;;;;5070818;27;47071;-75
2021/06/25 10:59:18;;;;;;;;;8.33;7.00;;;;;;;;5073273;27;48210;-77
2021/06/25 11:01:56;;;;;;;;;6.75;5.00;;;;;;;;5084289;27;45513;-75
2021/06/25 11:04:30;;;;;;;;;6.50;6.50;;;;;;;;5076610;27;45443;-75
2021/06/25 11:06:56;;;;;;;;;7.25;6.25;;;;;;;;5078186;27;45343;-74
2021/06/25 11:09:21;;;;;;;;;6.25;6.25;;;;;;;;5081968;27;47148;-75
2021/06/25 11:11:47;;;;;;;;;6.75;6.75;;;;;;;;5075523;27;45562;-75
2021/06/25 11:14:25;;;;;;;;;7.50;5.75;;;;;;;;5073675;27;45232;-75
2021/06/25 11:16:50;;;;;;;;;5.00;5.00;;;;;;;;5074247;27;45373;-76
2021/06/25 11:19:36;;;;;;;;;5.00;5.00;;;;;;;;5079766;27;46016;-76
2021/06/25 11:22:01;;;;;;;;;6.50;6.00;;;;;;;;5079302;27;45905;-75
2021/06/25 11:24:45;;;;;;;;;4.00;4.00;;;;;;;;5077047;27;45344;-76
2021/06/25 11:27:10;;;;;;;;;4.25;4.25;;;;;;;;5074432;27;45384;-75
2021/06/25 11:29:46;;;;;;;;;6.00;6.00;;;;;;;;5077550;27;45684;-76
2021/06/25 11:32:25;;;;;;;;;5.75;5.75;;;;;;;;5073044;27;46908;-75
2021/06/25 11:34:51;;;;;;;;;7.75;6.00;;;;;;;;5069606;27;45595;-76
2021/06/25 11:37:16;;;;;;;;;6.00;6.00;;;;;;;;5075630;27;45524;-75
2021/06/25 11:39:48;;;;;;;;;5.00;5.00;;;;;;;;5073007;27;45492;-76
2021/06/25 11:42:22;;;;;;;;;6.00;6.00;;;;;;;;5078730;27;45858;-80
2021/06/25 11:44:50;;;;;;;;;7.00;6.00;;;;;;;;5073616;27;45694;-77
2021/06/25 11:47:30;;;;;;;;;6.00;6.00;;;;;;;;5073395;27;45318;-76
2021/06/25 11:50:05;;;;;;;;;7.25;4.75;;;;;;;;5071917;27;45551;-77
2021/06/25 11:52:31;;;;;;;;;7.25;5.00;;;;;;;;5068736;27;45666;-84
2021/06/25 11:55:06;;;;;;;;;7.00;5.25;;;;;;;;5073888;27;45450;-79
2021/06/25 11:57:33;;;;;;;;;7.25;6.00;;;;;;;;5080510;27;45569;-80
2021/06/25 12:00:12;;;;;;;;;6.00;6.00;;;;;;;;5076160;27;47533;-76
2021/06/25 12:02:54;;;;;;;;;8.00;7.00;;;;;;;;5070617;27;45836;-78
2021/06/25 12:05:29;;;;;;;;;6.25;6.25;;;;;;;;5073927;27;46469;-75
2021/06/25 12:08:01;;;;;;;;;7.75;6.25;;;;;;;;5067093;27;45496;-79
2021/06/25 12:10:26;;;;;;;;;8.75;5.50;;;;;;;;5071089;27;45521;-75
2021/06/25 12:12:56;;;;;;;;;6.00;5.33;;;;;;;;5066241;27;45403;-76
2021/06/25 12:15:21;;;;;;;;;4.00;4.00;;;;;;;;5065510;27;45420;-76
2021/06/25 12:17:51;;;;;;;;;5.00;5.00;;;;;;;;5070637;27;49020;-77
2021/06/25 12:20:20;;;;;;;;;10.00;7.00;;;;;;;;5068517;27;45572;-78
2021/06/25 12:22:47;;;;;;;;;4.75;4.50;;;;;;;;5066779;27;45412;-76
2021/06/25 12:25:12;;;;;;;;;8.00;5.50;;;;;;;;5072727;27;45459;-76
2021/06/25 12:27:39;;;;;;;;;4.75;4.75;;;;;;;;5072887;27;45457;-76
2021/06/25 12:30:10;;;;;;;;;5.25;5.25;;;;;;;;5071176;27;45986;-77
2021/06/25 12:32:36;;;;;;;;;4.75;4.00;;;;;;;;5063613;27;45533;-76
2021/06/25 12:35:01;;;;;;;;;5.25;4.25;;;;;;;;5065261;27;45323;-76
2021/06/25 12:37:43;;;;;;;;;3.50;3.25;;;;;;;;5077734;27;45312;-76
2021/06/25 12:40:09;;;;;;;;;4.00;4.00;;;;;;;;5080065;27;45533;-76
2021/06/25 12:42:34;;;;;;;;;4.00;4.00;;;;;;;;5082841;27;45504;-76
2021/06/25 12:44:59;;;;;;;;;4.00;4.00;;;;;;;;5075869;27;45404;-76
2021/06/25 12:47:29;;;;;;;;;3.33;3.33;;;;;;;;5075023;27;45466;-79
2021/06/25 12:49:54;;;;;;;;;3.75;3.75;;;;;;;;5080454;27;47291;-76
2021/06/25 12:52:23;;;;;;;;;4.00;3.67;;;;;;;;5081723;27;45492;-76
2021/06/25 12:54:50;;;;;;;;;3.00;3.00;;;;;;;;5073716;27;45412;-76
2021/06/25 12:57:15;;;;;;;;;3.00;1.75;;;;;;;;5074900;27;45576;-77
2021/06/25 12:59:41;;;;;;;;;7.00;3.00;;;;;;;;5072949;27;47502;-77
2021/06/25 13:02:06;;;;;;;;;4.25;2.25;;;;;;;;5079221;27;45634;-76
2021/06/25 13:04:32;;;;;;;;;3.00;3.00;;;;;;;;5082165;27;45556;-76
2021/06/25 13:07:01;;;;;;;;;3.75;3.00;;;;;;;;5081621;27;45444;-76
2021/06/25 13:09:27;;;;;;;;;3.00;3.00;;;;;;;;5078568;27;45575;-76
2021/06/25 13:11:53;;;;;;;;;3.75;3.75;;;;;;;;5076777;27;45548;-76
2021/06/25 13:14:31;;;;;;;;;4.50;3.25;;;;;;;;5080501;27;45433;-78
2021/06/25 13:17:05;;;;;;;;;2.00;2.00;;;;;;;;5067595;27;45298;-74
2021/06/25 13:19:41;;;;;;;;;1.75;1.00;;;;;;;;5084039;27;45965;-76
2021/06/25 13:22:06;;;;;;;;;1.50;1.50;;;;;;;;5081488;27;45493;-76
2021/06/25 13:24:39;;;;;;;;;1.00;1.00;;;;;;;;5070544;27;45427;-76
2021/06/25 13:27:06;;;;;;;;;2.00;2.00;;;;;;;;5054431;28;45430;-76
2021/06/25 13:29:46;;;;;;;;;2.25;2.25;;;;;;;;5072813;27;45525;-76
2021/06/25 13:32:13;;;;;;;;;3.00;1.50;;;;;;;;5073231;27;45587;-80
2021/06/25 13:34:38;;;;;;;;;0.00;0.00;;;;;;;;5062731;27;45532;-75
2021/06/25 13:37:05;;;;;;;;;0.00;0.00;;;;;;;;5074398;27;45616;-77
2021/06/25 13:39:35;;;;;;;;;0.50;0.50;;;;;;;;5083561;27;47000;-76
2021/06/25 13:42:12;;;;;;;;;0.00;0.00;;;;;;;;5077453;27;45299;-77
2021/06/25 13:44:38;;;;;;;;;0.00;0.00;;;;;;;;5057380;27;45721;-76
2021/06/25 13:47:07;;;;;;;;;0.00;0.00;;;;;;;;5072161;27;45568;-77
2021/06/25 13:49:37;;;;;;;;;0.00;0.00;;;;;;;;5077385;27;46240;-76
2021/06/25 13:52:20;;;;;;;;;0.00;0.00;;;;;;;;5076430;27;45730;-76
2021/06/25 13:54:45;;;;;;;;;0.00;0.00;;;;;;;;5082275;27;45444;-77
2021/06/25 13:57:18;;;;;;;;;0.00;0.00;;;;;;;;5079459;27;45535;-76
2021/06/25 13:59:43;;;;;;;;;0.00;0.00;;;;;;;;5077877;27;46277;-76
2021/06/25 14:02:08;;;;;;;;;0.00;0.00;;;;;;;;5079964;27;45433;-76
2021/06/25 14:04:33;;;;;;;;;0.00;0.00;;;;;;;;5076407;27;45348;-76
2021/06/25 14:07:00;;;;;;;;;0.75;0.00;;;;;;;;5083742;27;45354;-76
2021/06/25 14:09:28;;;;;;;;;0.50;0.00;;;;;;;;5083407;27;45675;-77
2021/06/25 14:11:54;;;;;;;;;1.00;0.00;;;;;;;;5077668;27;45571;-77
2021/06/25 14:14:19;;;;;;;;;0.25;0.00;;;;;;;;5077856;27;45480;-76
2021/06/25 14:16:44;;;;;;;;;0.00;0.00;;;;;;;;5082667;27;45491;-79
2021/06/25 14:19:11;;;;;;;;;1.00;0.00;;;;;;;;5069413;27;45531;-76
2021/06/25 14:21:37;;;;;;;;;0.00;0.00;;;;;;;;5070881;27;45493;-76
2021/06/25 14:24:04;;;;;;;;;0.00;0.00;;;;;;;;5078919;27;45549;-76
2021/06/25 14:26:29;;;;;;;;;1.00;0.00;;;;;;;;5077172;27;46715;-75
2021/06/25 14:28:55;;;;;;;;;0.00;0.00;;;;;;;;5073105;27;46204;-76
2021/06/25 14:31:21;;;;;;;;;0.25;0.00;;;;;;;;5081699;27;45840;-77